Terminal Aerodrome Forecast
Issued by NWS

Home | Current Version | Previous Version | Text Only | Print | Product List | Glossary On
Versions: 1 2 3 4 5 6 7 8 9 10 11 12 13 14 15 16 17 18 19 20 21 22 23 24 25 26 27 28 29 30 31 32 33
000
FTUS41 KRNK 280722 AAA
TAFBCB
TAF AMD
KBCB 280722Z 2807/2906 VRB03KT P6SM SCT035 BKN120
      TEMPO 2809/2812 1 1/2SM BR SCT015 BKN035
     FM281300 VRB03KT P6SM SCT035
     FM281600 13006KT P6SM VCTS BKN040CB
     FM290200 VRB03KT P6SM SCT040 BKN120=

USA.gov is the U.S. government's official web portal to all federal, state and local government web resources and services.